createdAt,value
2023-03-02T00:00:43.275Z,113.00
2023-03-02T00:04:57.198Z,110.80
2023-03-02T00:09:06.314Z,120.40
2023-03-02T00:13:14.762Z,145.10
2023-03-02T00:17:28.953Z,171.00
2023-03-02T00:21:37.882Z,146.90
2023-03-02T00:25:45.227Z,129.50
2023-03-02T00:29:52.812Z,143.10
2023-03-02T00:34:00.587Z,134.30
2023-03-02T00:38:09.084Z,132.90
2023-03-02T00:42:17.461Z,124.30
2023-03-02T00:46:26.279Z,127.30
2023-03-02T00:50:34.177Z,111.30
2023-03-02T00:54:41.949Z,116.80
2023-03-02T00:58:49.749Z,170.10
2023-03-02T01:02:59.457Z,160.40
2023-03-02T01:07:11.173Z,130.10
2023-03-02T01:11:21.222Z,118.00
2023-03-02T01:15:33.317Z,110.50
2023-03-02T01:19:41.737Z,121.70
2023-03-02T01:23:51.844Z,110.40
2023-03-02T01:27:59.973Z,112.60
2023-03-02T01:32:08.074Z,102.00
2023-03-02T01:36:16.595Z,101.90
2023-03-02T01:40:23.746Z,94.70
2023-03-02T01:44:43.586Z,94.40
2023-03-02T01:48:55.982Z,119.10
2023-03-02T01:53:04.789Z,141.90
2023-03-02T01:57:14.774Z,120.40
2023-03-02T02:01:22.157Z,97.80
2023-03-02T02:05:29.702Z,104.50
2023-03-02T02:09:40.447Z,99.10
2023-03-02T02:13:48.020Z,111.30
2023-03-02T02:17:57.913Z,119.50
2023-03-02T02:22:06.666Z,125.60
2023-03-02T02:26:23.750Z,118.70
2023-03-02T02:30:32.183Z,115.10
2023-03-02T02:34:44.031Z,123.80
2023-03-02T02:38:55.790Z,127.50
2023-03-02T02:43:03.251Z,166.70
2023-03-02T02:47:16.201Z,179.80
2023-03-02T02:51:26.863Z,155.60
2023-03-02T02:55:35.927Z,119.10
2023-03-02T02:59:47.120Z,116.60
2023-03-02T03:03:57.490Z,123.70
2023-03-02T03:08:30.456Z,124.60
2023-03-02T03:12:38.345Z,129.70
2023-03-02T03:16:47.482Z,122.10
2023-03-02T03:20:57.217Z,107.90
2023-03-02T03:25:05.520Z,122.90
2023-03-02T03:29:13.483Z,108.10
2023-03-02T03:33:21.097Z,163.20
2023-03-02T03:37:29.434Z,183.70
2023-03-02T03:41:37.227Z,148.30
2023-03-02T03:45:44.482Z,120.70
2023-03-02T03:49:53.052Z,127.70
2023-03-02T03:54:01.238Z,121.50
2023-03-02T03:58:08.982Z,126.00
2023-03-02T04:02:16.968Z,121.20
2023-03-02T04:06:24.826Z,112.40
2023-03-02T04:10:32.457Z,110.40
2023-03-02T04:14:40.563Z,119.70
2023-03-02T04:18:48.323Z,132.30
2023-03-02T04:22:57.227Z,181.40
2023-03-02T04:27:05.439Z,212.90
2023-03-02T04:31:13.127Z,158.30
2023-03-02T04:35:21.409Z,141.20
2023-03-02T04:39:29.508Z,130.20
2023-03-02T04:43:37.383Z,142.20
2023-03-02T04:47:46.326Z,132.40
2023-03-02T04:51:54.544Z,132.20
2023-03-02T04:56:02.340Z,132.50
2023-03-02T05:00:13.426Z,140.50
2023-03-02T05:04:21.727Z,142.80
2023-03-02T05:08:29.447Z,170.80
2023-03-02T05:12:54.556Z,201.00
2023-03-02T05:17:04.943Z,163.60
2023-03-02T05:21:12.865Z,138.90
2023-03-02T05:25:22.936Z,134.90
2023-03-02T05:29:30.593Z,143.10
2023-03-02T05:33:37.914Z,145.30
2023-03-02T05:37:45.722Z,137.20
2023-03-02T05:41:53.891Z,136.70
2023-03-02T05:46:01.668Z,140.80
2023-03-02T05:50:15.492Z,128.40
2023-03-02T05:54:24.124Z,132.00
2023-03-02T05:58:32.827Z,116.30
2023-03-02T06:02:41.124Z,160.70
2023-03-02T06:06:48.808Z,191.40
2023-03-02T06:11:00.016Z,158.30
2023-03-02T06:15:09.519Z,127.00
2023-03-02T06:19:17.714Z,162.70
2023-03-02T06:23:25.224Z,153.60
2023-03-02T06:27:32.493Z,189.10
2023-03-02T06:31:40.411Z,181.80
2023-03-02T06:35:48.262Z,206.70
2023-03-02T06:39:55.651Z,255.30
2023-03-02T06:44:03.074Z,256.80
2023-03-02T06:48:10.904Z,306.70
2023-03-02T06:52:19.434Z,305.70
2023-03-02T06:56:27.181Z,243.00
2023-03-02T07:00:35.104Z,181.10
2023-03-02T07:04:43.293Z,174.20
2023-03-02T07:08:53.478Z,169.50
2023-03-02T07:13:01.329Z,167.50
2023-03-02T07:17:09.040Z,198.60
2023-03-02T07:21:16.805Z,197.40
2023-03-02T07:25:25.926Z,286.60
2023-03-02T07:29:33.585Z,343.80
2023-03-02T07:33:42.696Z,338.30
2023-03-02T07:37:50.378Z,218.20
2023-03-02T07:42:01.220Z,197.40
2023-03-02T07:46:08.672Z,190.70
2023-03-02T07:50:17.897Z,178.10
2023-03-02T07:54:27.620Z,179.20
2023-03-02T07:58:35.495Z,171.10
2023-03-02T08:02:43.981Z,233.20
2023-03-02T08:06:53.249Z,221.90
2023-03-02T08:11:07.890Z,152.10
2023-03-02T08:15:15.823Z,132.10
2023-03-02T08:19:23.707Z,120.80
2023-03-02T08:23:31.720Z,132.00
2023-03-02T08:27:40.347Z,117.20
2023-03-02T08:31:48.469Z,112.50
2023-03-02T08:36:00.356Z,111.10
2023-03-02T08:40:10.268Z,84.90
2023-03-02T08:44:18.621Z,81.80
2023-03-02T08:48:27.858Z,129.60
2023-03-02T08:52:37.298Z,110.00
2023-03-02T08:56:45.096Z,68.90
2023-03-02T09:00:53.641Z,58.60
2023-03-02T09:05:01.495Z,67.10
2023-03-02T09:09:09.870Z,61.10
2023-03-02T09:13:17.740Z,51.80
2023-03-02T09:17:25.829Z,46.40
2023-03-02T09:21:33.664Z,48.20
2023-03-02T09:25:41.884Z,47.70
2023-03-02T09:29:49.685Z,45.30
2023-03-02T09:33:58.362Z,47.50
2023-03-02T09:38:06.098Z,47.90
2023-03-02T09:42:25.410Z,45.90
2023-03-02T09:46:37.779Z,51.70
2023-03-02T09:50:53.787Z,47.50
2023-03-02T09:55:03.664Z,40.00
2023-03-02T09:59:20.264Z,40.80
2023-03-02T10:03:34.321Z,44.70
2023-03-02T10:07:42.163Z,48.20
2023-03-02T10:11:59.089Z,41.70
2023-03-02T10:16:17.708Z,44.30
2023-03-02T10:20:34.615Z,39.30
2023-03-02T10:24:46.621Z,36.70
2023-03-02T10:29:04.980Z,41.60
2023-03-02T10:33:18.988Z,42.00
2023-03-02T10:37:30.699Z,44.80
2023-03-02T10:41:42.418Z,49.90
2023-03-02T10:46:02.667Z,46.50
2023-03-02T10:50:25.077Z,45.00
2023-03-02T10:54:34.691Z,45.80
2023-03-02T10:58:43.678Z,36.90
2023-03-02T11:02:56.434Z,45.70
2023-03-02T11:07:13.225Z,45.40
2023-03-02T11:11:26.373Z,41.50
2023-03-02T11:15:41.506Z,46.10
2023-03-02T11:19:49.901Z,43.90
2023-03-02T11:24:05.055Z,36.10
2023-03-02T11:28:18.380Z,35.30
2023-03-02T11:32:32.282Z,35.10
2023-03-02T11:36:47.544Z,38.50
2023-03-02T11:40:58.947Z,43.00
2023-03-02T11:45:18.903Z,42.00
2023-03-02T11:49:29.854Z,47.50
2023-03-02T11:53:43.915Z,42.50
2023-03-02T11:57:54.202Z,34.20
2023-03-02T12:02:03.418Z,41.30
2023-03-02T12:06:29.892Z,45.30
2023-03-02T12:10:40.577Z,43.40
2023-03-02T12:14:49.210Z,42.80
2023-03-02T12:18:57.326Z,41.50
2023-03-02T12:23:23.224Z,43.00
2023-03-02T12:27:37.561Z,41.50
2023-03-02T12:31:48.662Z,40.60
2023-03-02T12:36:08.630Z,37.30
2023-03-02T12:40:29.073Z,38.10
2023-03-02T12:44:47.479Z,37.00
2023-03-02T12:49:03.310Z,37.20
2023-03-02T12:53:21.280Z,34.20
2023-03-02T12:57:29.197Z,40.20
2023-03-02T13:01:37.935Z,37.70
2023-03-02T13:05:46.575Z,37.30
2023-03-02T13:09:57.341Z,34.50
2023-03-02T13:14:15.220Z,37.00
2023-03-02T13:18:23.163Z,35.60
2023-03-02T13:22:31.567Z,28.80
2023-03-02T13:26:40.919Z,41.30
2023-03-02T13:30:50.547Z,33.10
2023-03-02T13:34:59.812Z,35.30
2023-03-02T13:39:17.001Z,39.80
2023-03-02T13:43:38.450Z,45.50
2023-03-02T13:47:46.049Z,30.20
2023-03-02T13:52:03.217Z,35.70
2023-03-02T13:56:14.476Z,33.00
2023-03-02T14:00:24.658Z,35.50
2023-03-02T14:04:33.092Z,34.20
2023-03-02T14:08:41.129Z,32.10
2023-03-02T14:12:53.725Z,35.30
2023-03-02T14:17:01.644Z,30.20
2023-03-02T14:21:12.885Z,32.10
2023-03-02T14:25:21.295Z,31.90
2023-03-02T14:29:32.329Z,31.30
2023-03-02T14:33:40.488Z,31.90
2023-03-02T14:37:51.390Z,30.60
2023-03-02T14:41:59.359Z,32.50
2023-03-02T14:46:07.108Z,32.80
2023-03-02T14:50:17.238Z,33.80
2023-03-02T14:54:25.224Z,33.40
2023-03-02T14:58:36.050Z,36.00
2023-03-02T15:02:44.341Z,34.40
2023-03-02T15:06:52.774Z,33.40
2023-03-02T15:11:01.007Z,34.70
2023-03-02T15:15:10.816Z,39.20
2023-03-02T15:19:20.799Z,38.00
2023-03-02T15:23:28.924Z,38.30
2023-03-02T15:27:36.532Z,34.30
2023-03-02T15:31:44.331Z,37.10
2023-03-02T15:35:56.001Z,42.20
2023-03-02T15:40:04.003Z,32.80
2023-03-02T15:44:22.518Z,36.50
2023-03-02T15:48:31.611Z,36.60
2023-03-02T15:52:39.847Z,39.70
2023-03-02T15:56:52.026Z,37.10
2023-03-02T16:01:00.571Z,40.20
2023-03-02T16:05:10.745Z,41.60
2023-03-02T16:09:20.409Z,38.80
2023-03-02T16:13:30.397Z,43.60
2023-03-02T16:17:41.832Z,39.70
2023-03-02T16:21:49.428Z,46.20
2023-03-02T16:25:57.007Z,54.60
2023-03-02T16:30:05.338Z,51.80
2023-03-02T16:34:13.729Z,42.50
2023-03-02T16:38:21.928Z,43.40
2023-03-02T16:42:30.505Z,45.00
2023-03-02T16:46:43.853Z,53.20
2023-03-02T16:50:58.501Z,43.40
2023-03-02T16:55:07.118Z,41.90
2023-03-02T16:59:14.871Z,49.30
2023-03-02T17:03:24.313Z,60.30
2023-03-02T17:07:32.276Z,65.50
2023-03-02T17:11:39.784Z,66.00
2023-03-02T17:15:48.050Z,68.20
2023-03-02T17:19:56.634Z,62.20
2023-03-02T17:24:04.919Z,69.30
2023-03-02T17:28:15.036Z,58.90
2023-03-02T17:32:23.028Z,66.60
2023-03-02T17:36:35.042Z,70.80
2023-03-02T17:40:44.410Z,73.10
2023-03-02T17:44:52.002Z,68.10
2023-03-02T17:49:01.614Z,82.30
2023-03-02T17:53:09.661Z,82.80
2023-03-02T17:57:23.212Z,76.70
2023-03-02T18:01:32.450Z,71.20
2023-03-02T18:05:40.388Z,71.40
2023-03-02T18:09:48.402Z,68.50
2023-03-02T18:13:56.208Z,68.00
2023-03-02T18:18:04.560Z,60.40
2023-03-02T18:22:13.695Z,59.80
2023-03-02T18:26:21.931Z,76.00
2023-03-02T18:30:29.784Z,86.10
2023-03-02T18:34:37.223Z,98.70
2023-03-02T18:38:45.924Z,87.40
2023-03-02T18:42:54.220Z,82.60
2023-03-02T18:47:02.216Z,83.50
2023-03-02T18:51:10.290Z,81.90
2023-03-02T18:55:17.788Z,94.20
2023-03-02T18:59:25.275Z,97.40
2023-03-02T19:03:35.421Z,123.30
2023-03-02T19:07:43.144Z,142.20
2023-03-02T19:11:52.124Z,99.90
2023-03-02T19:16:01.566Z,87.00
2023-03-02T19:20:12.083Z,83.20
2023-03-02T19:24:21.090Z,81.90
2023-03-02T19:28:30.760Z,75.90
2023-03-02T19:32:38.523Z,69.30
2023-03-02T19:36:46.944Z,70.90
2023-03-02T19:40:54.996Z,87.70
2023-03-02T19:45:05.256Z,106.60
2023-03-02T19:49:13.778Z,142.20
2023-03-02T19:53:22.111Z,102.00
2023-03-02T19:57:32.036Z,96.30
2023-03-02T20:01:40.162Z,121.80
2023-03-02T20:05:48.360Z,120.00
2023-03-02T20:09:56.786Z,73.90
2023-03-02T20:14:05.434Z,102.00
2023-03-02T20:18:15.451Z,83.50
2023-03-02T20:22:24.563Z,75.30
2023-03-02T20:26:33.286Z,76.00
2023-03-02T20:30:44.348Z,82.90
2023-03-02T20:34:52.439Z,82.30
2023-03-02T20:39:09.073Z,94.30
2023-03-02T20:43:19.444Z,106.60
2023-03-02T20:47:27.136Z,102.10
2023-03-02T20:51:36.735Z,111.90
2023-03-02T20:55:45.047Z,70.80
2023-03-02T20:59:52.794Z,75.80
2023-03-02T21:04:00.888Z,83.40
2023-03-02T21:08:11.359Z,101.60
2023-03-02T21:12:18.935Z,112.30
2023-03-02T21:16:29.028Z,97.70
2023-03-02T21:20:38.414Z,82.40
2023-03-02T21:24:46.480Z,81.90
2023-03-02T21:28:55.343Z,83.80
2023-03-02T21:33:03.584Z,103.60
2023-03-02T21:37:11.313Z,109.10
2023-03-02T21:41:19.300Z,97.60
2023-03-02T21:45:26.631Z,80.60
2023-03-02T21:49:35.955Z,87.70
2023-03-02T21:53:44.009Z,85.70
2023-03-02T21:57:54.860Z,75.50
2023-03-02T22:02:06.114Z,114.90
2023-03-02T22:06:19.015Z,100.60
2023-03-02T22:10:31.479Z,88.60
2023-03-02T22:14:39.577Z,76.30
2023-03-02T22:18:49.132Z,75.50
2023-03-02T22:22:57.640Z,74.80
2023-03-02T22:27:20.436Z,80.00
2023-03-02T22:31:29.852Z,93.80
2023-03-02T22:35:38.269Z,92.60
2023-03-02T22:39:47.450Z,87.90
2023-03-02T22:43:57.913Z,78.80
2023-03-02T22:48:11.821Z,73.20
2023-03-02T22:52:26.240Z,68.40
2023-03-02T22:56:35.754Z,73.30
2023-03-02T23:00:43.574Z,91.90
2023-03-02T23:04:51.473Z,91.60
2023-03-02T23:09:00.623Z,79.50
2023-03-02T23:13:10.451Z,62.30
2023-03-02T23:17:23.335Z,65.10
2023-03-02T23:21:35.468Z,66.80
2023-03-02T23:25:42.869Z,61.40
2023-03-02T23:29:50.871Z,81.20
2023-03-02T23:33:58.471Z,86.10
2023-03-02T23:38:05.889Z,74.00
2023-03-02T23:42:14.103Z,55.30
2023-03-02T23:46:23.357Z,59.60
2023-03-02T23:50:31.237Z,59.30
2023-03-02T23:54:39.233Z,56.50
2023-03-02T23:58:46.776Z,87.60
